createdAt,value
2023-05-14T00:01:17.485Z,98767.81
2023-05-14T00:03:45.607Z,98767.78
2023-05-14T00:06:13.742Z,98762.97
2023-05-14T00:08:41.288Z,98759.72
2023-05-14T00:11:11.688Z,98752.53
2023-05-14T00:13:38.886Z,98754.69
2023-05-14T00:16:06.360Z,98747.13
2023-05-14T00:18:33.666Z,98744.59
2023-05-14T00:21:00.858Z,98736.03
2023-05-14T00:23:28.545Z,98741.00
2023-05-14T00:25:56.686Z,98740.16
2023-05-14T00:28:24.336Z,98729.97
2023-05-14T00:30:52.240Z,98737.84
2023-05-14T00:33:19.764Z,98738.41
2023-05-14T00:35:47.259Z,98734.22
2023-05-14T00:38:23.448Z,98733.34
2023-05-14T00:40:51.957Z,98723.78
2023-05-14T00:43:23.411Z,98725.69
2023-05-14T00:45:53.307Z,98717.84
2023-05-14T00:48:21.917Z,98728.03
2023-05-14T00:50:51.156Z,98722.81
2023-05-14T00:53:20.733Z,98733.69
2023-05-14T00:55:50.430Z,98729.25
2023-05-14T00:58:19.383Z,98730.41
2023-05-14T01:00:46.643Z,98720.34
2023-05-14T01:03:14.607Z,98726.94
2023-05-14T01:06:01.119Z,98719.09
2023-05-14T01:09:14.554Z,98723.81
2023-05-14T01:12:12.543Z,98724.00
2023-05-14T01:15:11.585Z,98723.25
2023-05-14T01:17:47.205Z,98720.81
2023-05-14T01:20:15.501Z,98724.00
2023-05-14T01:22:42.694Z,98714.31
2023-05-14T01:25:10.511Z,98715.00
2023-05-14T01:28:17.957Z,98712.50
2023-05-14T01:31:14.133Z,98717.41
2023-05-14T01:33:44.547Z,98716.63
2023-05-14T01:36:12.692Z,98716.22
2023-05-14T01:38:45.479Z,98716.97
2023-05-14T01:41:14.522Z,98712.56
2023-05-14T01:43:42.426Z,98709.41
2023-05-14T01:46:09.797Z,98712.19
2023-05-14T01:48:37.852Z,98711.53
2023-05-14T01:51:05.054Z,98700.88
2023-05-14T01:53:34.798Z,98703.47
2023-05-14T01:56:02.455Z,98693.34
2023-05-14T01:58:29.584Z,98695.47
2023-05-14T02:00:56.786Z,98700.88
2023-05-14T02:03:24.322Z,98699.31
2023-05-14T02:05:52.340Z,98708.13
2023-05-14T02:08:19.800Z,98703.59
2023-05-14T02:10:47.002Z,98698.06
2023-05-14T02:13:15.121Z,98699.91
2023-05-14T02:15:42.401Z,98697.19
2023-05-14T02:18:09.637Z,98700.94
2023-05-14T02:20:36.831Z,98708.09
2023-05-14T02:23:04.072Z,98707.41
2023-05-14T02:25:31.562Z,98705.38
2023-05-14T02:27:58.833Z,98705.81
2023-05-14T02:30:26.111Z,98705.28
2023-05-14T02:32:53.512Z,98700.91
2023-05-14T02:35:21.398Z,98704.94
2023-05-14T02:37:48.933Z,98705.13
2023-05-14T02:40:16.241Z,98708.78
2023-05-14T02:42:43.475Z,98711.38
2023-05-14T02:45:11.048Z,98713.97
2023-05-14T02:47:38.455Z,98710.31
2023-05-14T02:50:06.906Z,98708.91
2023-05-14T02:52:34.231Z,98712.13
2023-05-14T02:55:02.319Z,98713.19
2023-05-14T02:57:29.519Z,98710.41
2023-05-14T02:59:56.681Z,98709.63
2023-05-14T03:02:24.368Z,98707.94
2023-05-14T03:04:52.098Z,98710.06
2023-05-14T03:07:19.436Z,98709.84
2023-05-14T03:09:46.644Z,98713.13
2023-05-14T03:12:14.415Z,98714.00
2023-05-14T03:14:41.570Z,98716.81
2023-05-14T03:17:08.855Z,98715.56
2023-05-14T03:19:36.142Z,98711.41
2023-05-14T03:22:03.563Z,98712.69
2023-05-14T03:24:31.526Z,98707.16
2023-05-14T03:26:58.767Z,98712.97
2023-05-14T03:29:25.994Z,98716.44
2023-05-14T03:31:54.317Z,98717.13
2023-05-14T03:34:21.497Z,98703.28
2023-05-14T03:36:48.748Z,98708.50
2023-05-14T03:39:19.623Z,98711.56
2023-05-14T03:41:48.097Z,98708.88
2023-05-14T03:44:15.556Z,98711.94
2023-05-14T03:46:42.781Z,98713.91
2023-05-14T03:49:10.857Z,98710.22
2023-05-14T03:51:38.072Z,98710.97
2023-05-14T03:54:06.732Z,98712.81
2023-05-14T03:56:34.083Z,98706.53
2023-05-14T03:59:01.432Z,98709.47
2023-05-14T04:01:28.831Z,98707.34
2023-05-14T04:03:58.936Z,98707.53
2023-05-14T04:06:27.531Z,98703.75
2023-05-14T04:08:55.495Z,98705.50
2023-05-14T04:11:23.277Z,98712.09
2023-05-14T04:13:50.533Z,98706.09
2023-05-14T04:16:17.892Z,98706.28
2023-05-14T04:18:45.112Z,98702.88
2023-05-14T04:21:12.648Z,98702.88
2023-05-14T04:23:40.369Z,98702.38
2023-05-14T04:26:07.854Z,98704.13
2023-05-14T04:28:35.731Z,98696.28
2023-05-14T04:31:03.880Z,98699.19
2023-05-14T04:33:31.246Z,98700.75
2023-05-14T04:35:58.536Z,98692.25
2023-05-14T04:38:29.465Z,98690.50
2023-05-14T04:40:56.966Z,98693.22
2023-05-14T04:43:24.378Z,98695.50
2023-05-14T04:45:52.552Z,98691.66
2023-05-14T04:48:19.981Z,98696.69
2023-05-14T04:50:47.187Z,98699.00
2023-05-14T04:53:14.326Z,98692.06
2023-05-14T04:55:41.612Z,98688.31
2023-05-14T04:58:08.853Z,98697.69
2023-05-14T05:00:36.026Z,98697.09
2023-05-14T05:03:04.074Z,98704.03
2023-05-14T05:05:31.824Z,98702.88
2023-05-14T05:07:59.231Z,98702.94
2023-05-14T05:10:26.798Z,98706.75
2023-05-14T05:12:54.167Z,98702.50
2023-05-14T05:15:21.677Z,98703.09
2023-05-14T05:17:49.465Z,98701.66
2023-05-14T05:20:16.977Z,98700.94
2023-05-14T05:22:44.684Z,98698.84
2023-05-14T05:25:12.930Z,98695.34
2023-05-14T05:27:40.930Z,98692.75
2023-05-14T05:30:09.499Z,98694.78
2023-05-14T05:32:37.304Z,98690.91
2023-05-14T05:35:05.171Z,98692.06
2023-05-14T05:37:32.417Z,98695.06
2023-05-14T05:40:00.083Z,98703.41
2023-05-14T05:42:27.391Z,98706.09
2023-05-14T05:44:54.808Z,98700.19
2023-05-14T05:47:22.188Z,98698.66
2023-05-14T05:49:49.716Z,98701.16
2023-05-14T05:52:16.927Z,98695.75
2023-05-14T05:54:44.213Z,98692.47
2023-05-14T05:57:11.376Z,98702.53
2023-05-14T05:59:38.705Z,98703.69
2023-05-14T06:02:07.030Z,98697.13
2023-05-14T06:04:35.135Z,98703.06
2023-05-14T06:07:02.659Z,98700.75
2023-05-14T06:09:30.659Z,98703.28
2023-05-14T06:11:58.814Z,98701.06
2023-05-14T06:14:26.212Z,98698.44
2023-05-14T06:16:53.668Z,98704.44
2023-05-14T06:19:23.258Z,98705.72
2023-05-14T06:21:51.025Z,98713.38
2023-05-14T06:24:20.192Z,98713.38
2023-05-14T06:26:49.365Z,98709.47
2023-05-14T06:29:17.389Z,98709.88
2023-05-14T06:31:44.980Z,98704.19
2023-05-14T06:34:12.469Z,98705.72
2023-05-14T06:36:41.886Z,98701.84
2023-05-14T06:39:08.975Z,98705.84
2023-05-14T06:41:38.832Z,98702.19
2023-05-14T06:44:06.592Z,98699.66
2023-05-14T06:46:33.796Z,98701.69
2023-05-14T06:49:00.927Z,98705.94
2023-05-14T06:51:30.675Z,98699.59
2023-05-14T06:53:58.075Z,98694.53
2023-05-14T06:56:25.255Z,98695.47
2023-05-14T06:58:52.390Z,98696.56
2023-05-14T07:01:19.894Z,98691.47
2023-05-14T07:03:49.066Z,98701.25
2023-05-14T07:06:16.263Z,98699.06
2023-05-14T07:08:47.663Z,98693.19
2023-05-14T07:11:15.986Z,98697.31
2023-05-14T07:13:43.331Z,98697.97
2023-05-14T07:16:10.500Z,98696.91
2023-05-14T07:18:38.013Z,98693.84
2023-05-14T07:21:06.677Z,98695.44
2023-05-14T07:23:36.774Z,98688.31
2023-05-14T07:26:06.675Z,98683.97
2023-05-14T07:28:35.596Z,98679.47
2023-05-14T07:31:08.811Z,98677.34
2023-05-14T07:33:36.906Z,98672.44
2023-05-14T07:36:05.289Z,98675.47
2023-05-14T07:38:33.181Z,98667.56
2023-05-14T07:41:00.558Z,98677.78
2023-05-14T07:43:27.860Z,98672.09
2023-05-14T07:45:55.892Z,98670.38
2023-05-14T07:48:23.264Z,98680.59
2023-05-14T07:50:51.952Z,98672.59
2023-05-14T07:53:19.224Z,98670.72
2023-05-14T07:55:48.343Z,98670.81
2023-05-14T07:58:16.205Z,98671.25
2023-05-14T08:00:43.321Z,98668.84
2023-05-14T08:03:11.012Z,98662.31
2023-05-14T08:05:38.776Z,98663.75
2023-05-14T08:08:06.749Z,98656.16
2023-05-14T08:10:34.522Z,98653.88
2023-05-14T08:13:01.948Z,98650.06
2023-05-14T08:15:32.296Z,98644.81
2023-05-14T08:18:03.426Z,98647.16
2023-05-14T08:20:38.109Z,98650.06
2023-05-14T08:23:05.489Z,98658.56
2023-05-14T08:25:33.481Z,98657.28
2023-05-14T08:28:01.729Z,98657.81
2023-05-14T08:30:29.253Z,98660.84
2023-05-14T08:32:58.262Z,98654.13
2023-05-14T08:35:25.887Z,98651.72
2023-05-14T08:37:53.202Z,98659.25
2023-05-14T08:40:20.674Z,98653.81
2023-05-14T08:42:51.882Z,98654.66
2023-05-14T08:45:22.123Z,98661.75
2023-05-14T08:47:51.688Z,98657.66
2023-05-14T08:50:23.673Z,98658.53
2023-05-14T08:52:53.000Z,98658.53
2023-05-14T08:55:20.178Z,98651.84
2023-05-14T08:57:47.440Z,98653.06
2023-05-14T09:00:20.421Z,98656.28
2023-05-14T09:02:49.352Z,98650.47
2023-05-14T09:05:19.194Z,98651.53
2023-05-14T09:07:47.145Z,98645.31
2023-05-14T09:10:18.804Z,98650.69
2023-05-14T09:14:29.191Z,98649.72
2023-05-14T09:16:57.020Z,98644.38
2023-05-14T09:19:24.826Z,98638.38
2023-05-14T09:21:52.115Z,98638.34
2023-05-14T09:24:26.148Z,98633.56
2023-05-14T09:26:57.816Z,98630.19
2023-05-14T09:29:28.861Z,98625.88
2023-05-14T09:31:59.089Z,98626.38
2023-05-14T09:34:30.652Z,98626.03
2023-05-14T09:37:08.621Z,98618.56
2023-05-14T09:39:38.239Z,98613.66
2023-05-14T09:42:06.388Z,98615.84
2023-05-14T09:44:36.271Z,98617.59
2023-05-14T09:47:04.292Z,98615.22
2023-05-14T09:49:31.627Z,98615.75
2023-05-14T09:51:59.180Z,98613.88
2023-05-14T09:54:27.572Z,98608.59
2023-05-14T09:56:55.902Z,98610.38
2023-05-14T09:59:23.605Z,98611.84
2023-05-14T10:01:52.621Z,98605.69
2023-05-14T10:04:22.995Z,98603.59
2023-05-14T10:06:53.308Z,98603.06
2023-05-14T10:09:26.495Z,98604.38
2023-05-14T10:12:01.260Z,98601.06
2023-05-14T10:14:49.557Z,98603.84
2023-05-14T10:17:21.696Z,98604.22
2023-05-14T10:19:57.326Z,98602.53
2023-05-14T10:22:34.970Z,98600.84
2023-05-14T10:25:05.084Z,98595.63
2023-05-14T10:27:33.294Z,98597.81
2023-05-14T10:30:06.076Z,98601.72
2023-05-14T10:32:33.879Z,98598.13
2023-05-14T10:35:02.280Z,98596.75
2023-05-14T10:37:34.839Z,98586.00
2023-05-14T10:40:07.120Z,98584.25
2023-05-14T10:42:43.357Z,98581.94
2023-05-14T10:45:16.482Z,98587.66
2023-05-14T10:47:47.271Z,98585.78
2023-05-14T10:50:18.636Z,98574.88
2023-05-14T10:52:49.452Z,98578.09
2023-05-14T10:55:17.893Z,98567.97
2023-05-14T10:57:47.365Z,98569.06
2023-05-14T11:00:25.997Z,98564.88
2023-05-14T11:02:57.569Z,98572.81
2023-05-14T11:05:27.455Z,98572.69
2023-05-14T11:07:57.752Z,98571.06
2023-05-14T11:10:35.386Z,98562.63
2023-05-14T11:13:03.459Z,98560.09
2023-05-14T11:15:32.094Z,98555.00
2023-05-14T11:17:59.868Z,98556.84
2023-05-14T11:20:27.791Z,98537.97
2023-05-14T11:22:55.762Z,98528.91
2023-05-14T11:25:29.224Z,98542.50
2023-05-14T11:27:58.905Z,98538.94
2023-05-14T11:30:29.342Z,98535.47
2023-05-14T11:32:57.914Z,98529.97
2023-05-14T11:35:27.272Z,98541.06
2023-05-14T11:37:54.889Z,98532.84
2023-05-14T11:40:22.770Z,98527.34
2023-05-14T11:42:53.805Z,98528.72
2023-05-14T11:45:30.126Z,98534.50
2023-05-14T11:47:58.139Z,98525.88
2023-05-14T11:50:26.320Z,98524.91
2023-05-14T11:52:57.766Z,98528.03
2023-05-14T11:55:25.663Z,98526.72
2023-05-14T11:57:53.873Z,98516.03
2023-05-14T12:00:23.063Z,98511.94
2023-05-14T12:02:51.616Z,98508.47
2023-05-14T12:05:19.897Z,98511.22
2023-05-14T12:07:48.385Z,98502.16
2023-05-14T12:10:17.853Z,98502.78
2023-05-14T12:12:49.077Z,98504.81
2023-05-14T12:15:17.414Z,98497.00
2023-05-14T12:18:48.676Z,98496.72
2023-05-14T12:22:14.010Z,98492.41
2023-05-14T12:25:38.551Z,98489.56
2023-05-14T12:29:03.629Z,98482.84
2023-05-14T12:32:28.119Z,98481.28
2023-05-14T12:34:55.818Z,98478.22
2023-05-14T12:38:20.141Z,98480.50
2023-05-14T12:40:47.995Z,98467.22
2023-05-14T12:44:12.277Z,98483.50
2023-05-14T12:46:40.044Z,98477.31
2023-05-14T12:49:08.069Z,98481.81
2023-05-14T12:55:58.768Z,98467.03
2023-05-14T12:58:26.514Z,98467.69
2023-05-14T13:00:54.185Z,98458.72
2023-05-14T13:04:18.483Z,98445.47
2023-05-14T13:06:46.148Z,98452.81
2023-05-14T13:09:13.916Z,98448.00
2023-05-14T13:11:41.653Z,98445.28
2023-05-14T13:15:02.905Z,98445.16
2023-05-14T13:17:32.912Z,98439.38
2023-05-14T13:20:00.731Z,98441.50
2023-05-14T13:22:28.821Z,98439.16
2023-05-14T13:24:57.753Z,98443.78
2023-05-14T13:27:26.084Z,98433.97
2023-05-14T13:29:54.228Z,98430.97
2023-05-14T13:32:22.083Z,98430.22
2023-05-14T13:34:49.688Z,98424.50
2023-05-14T13:37:17.539Z,98420.97
2023-05-14T13:39:45.480Z,98415.59
2023-05-14T13:42:13.390Z,98414.63
2023-05-14T13:44:41.088Z,98410.81
2023-05-14T13:47:08.790Z,98410.28
2023-05-14T13:49:36.505Z,98397.81
2023-05-14T13:52:04.493Z,98408.09
2023-05-14T13:54:32.154Z,98403.03
2023-05-14T13:56:59.855Z,98407.66
2023-05-14T13:59:27.938Z,98386.69
2023-05-14T14:01:55.669Z,98390.81
2023-05-14T14:04:25.642Z,98385.63
2023-05-14T14:06:53.246Z,98393.00
2023-05-14T14:09:21.259Z,98388.84
2023-05-14T14:11:49.547Z,98378.06
2023-05-14T14:14:17.897Z,98379.63
2023-05-14T14:16:45.525Z,98382.03
2023-05-14T14:19:13.745Z,98371.66
2023-05-14T14:21:46.874Z,98367.16
2023-05-14T14:24:14.611Z,98365.63
2023-05-14T14:26:42.666Z,98362.03
2023-05-14T14:29:10.542Z,98370.41
2023-05-14T14:31:38.765Z,98364.66
2023-05-14T14:34:06.445Z,98361.41
2023-05-14T14:36:34.037Z,98366.97
2023-05-14T14:39:06.043Z,98374.53
2023-05-14T14:41:33.813Z,98367.91
2023-05-14T14:44:02.800Z,98372.28
2023-05-14T14:46:30.499Z,98360.53
2023-05-14T14:48:58.099Z,98366.13
2023-05-14T14:51:26.115Z,98368.28
2023-05-14T14:53:53.767Z,98363.09
2023-05-14T14:56:22.040Z,98364.44
2023-05-14T14:58:49.634Z,98364.59
2023-05-14T15:01:17.373Z,98360.28
2023-05-14T15:03:45.658Z,98365.03
2023-05-14T15:06:13.338Z,98363.59
2023-05-14T15:08:41.558Z,98354.78
2023-05-14T15:11:09.440Z,98355.50
2023-05-14T15:13:37.200Z,98361.75
2023-05-14T15:16:04.925Z,98355.56
2023-05-14T15:18:32.655Z,98359.00
2023-05-14T15:21:00.423Z,98356.03
2023-05-14T15:23:28.084Z,98350.66
2023-05-14T15:25:55.887Z,98361.59
2023-05-14T15:28:23.428Z,98358.69
2023-05-14T15:30:51.132Z,98367.72
2023-05-14T15:33:19.350Z,98356.09
2023-05-14T15:35:47.258Z,98353.66
2023-05-14T15:38:14.960Z,98356.22
2023-05-14T15:40:42.538Z,98353.53
2023-05-14T15:43:10.120Z,98351.78
2023-05-14T15:45:37.793Z,98348.00
2023-05-14T15:48:05.803Z,98348.63
2023-05-14T15:50:33.464Z,98349.66
2023-05-14T15:53:03.094Z,98358.50
2023-05-14T15:55:30.760Z,98359.56
2023-05-14T15:57:58.424Z,98354.72
2023-05-14T16:00:26.309Z,98361.63
2023-05-14T16:02:54.172Z,98362.13
2023-05-14T16:05:21.997Z,98358.00
2023-05-14T16:07:49.748Z,98353.13
2023-05-14T16:10:21.659Z,98351.22
2023-05-14T16:12:49.554Z,98349.13
2023-05-14T16:15:17.376Z,98346.69
2023-05-14T16:17:45.024Z,98347.91
2023-05-14T16:20:13.009Z,98348.94
2023-05-14T16:22:40.704Z,98344.25
2023-05-14T16:25:08.790Z,98348.41
2023-05-14T16:27:36.803Z,98358.06
2023-05-14T16:30:05.657Z,98350.19
2023-05-14T16:32:33.808Z,98351.31
2023-05-14T16:35:02.701Z,98349.56
2023-05-14T16:37:32.051Z,98339.41
2023-05-14T16:39:59.653Z,98343.09
2023-05-14T16:42:27.473Z,98345.28
2023-05-14T16:44:55.061Z,98352.50
2023-05-14T16:47:22.980Z,98346.66
2023-05-14T16:49:50.655Z,98349.22
2023-05-14T16:52:18.621Z,98337.16
2023-05-14T16:54:46.429Z,98339.84
2023-05-14T16:57:14.081Z,98339.72
2023-05-14T16:59:41.723Z,98338.06
2023-05-14T17:02:09.842Z,98340.22
2023-05-14T17:04:40.936Z,98337.75
2023-05-14T17:07:08.708Z,98344.53
2023-05-14T17:09:36.300Z,98337.63
2023-05-14T17:12:04.363Z,98346.72
2023-05-14T17:14:32.068Z,98341.41
2023-05-14T17:16:59.674Z,98340.75
2023-05-14T17:19:27.302Z,98347.97
2023-05-14T17:21:54.932Z,98345.94
2023-05-14T17:24:22.585Z,98345.94
2023-05-14T17:26:50.240Z,98338.81
2023-05-14T17:29:17.921Z,98346.78
2023-05-14T17:31:45.851Z,98341.94
2023-05-14T17:34:13.677Z,98343.81
2023-05-14T17:36:41.422Z,98355.44
2023-05-14T17:39:09.311Z,98352.38
2023-05-14T17:41:36.870Z,98350.69
2023-05-14T17:44:04.681Z,98347.09
2023-05-14T17:46:33.733Z,98350.88
2023-05-14T17:49:01.571Z,98351.53
2023-05-14T17:51:29.254Z,98355.75
2023-05-14T17:53:56.905Z,98354.44
2023-05-14T17:56:24.651Z,98355.75
2023-05-14T17:58:52.252Z,98361.66
2023-05-14T18:01:19.931Z,98357.03
2023-05-14T18:03:47.749Z,98362.78
2023-05-14T18:06:15.748Z,98355.03
2023-05-14T18:08:43.404Z,98361.47
2023-05-14T18:11:11.158Z,98359.91
2023-05-14T18:13:38.873Z,98369.69
2023-05-14T18:16:06.705Z,98368.22
2023-05-14T18:18:34.479Z,98364.91
2023-05-14T18:21:02.573Z,98364.56
2023-05-14T18:23:30.287Z,98372.22
2023-05-14T18:25:57.968Z,98369.19
2023-05-14T18:28:26.389Z,98375.78
2023-05-14T18:30:54.038Z,98377.28
2023-05-14T18:33:21.209Z,98372.97
2023-05-14T18:35:48.725Z,98375.28
2023-05-14T18:38:17.790Z,98383.06
2023-05-14T18:40:46.698Z,98384.72
2023-05-14T18:43:15.055Z,98374.72
2023-05-14T18:45:43.096Z,98382.84
2023-05-14T18:48:10.554Z,98377.84
2023-05-14T18:50:39.507Z,98372.75
2023-05-14T18:53:08.447Z,98384.03
2023-05-14T18:55:38.801Z,98379.84
2023-05-14T18:58:05.982Z,98381.84
2023-05-14T19:00:33.223Z,98387.03
2023-05-14T19:03:00.899Z,98388.03
2023-05-14T19:05:28.551Z,98392.88
2023-05-14T19:08:02.052Z,98393.00
2023-05-14T19:10:30.023Z,98398.06
2023-05-14T19:12:57.691Z,98394.13
2023-05-14T19:15:25.275Z,98402.63
2023-05-14T19:17:54.209Z,98404.88
2023-05-14T19:20:21.504Z,98413.50
2023-05-14T19:22:49.356Z,98409.56
2023-05-14T19:25:20.192Z,98412.28
2023-05-14T19:27:51.070Z,98413.03
2023-05-14T19:30:20.696Z,98416.97
2023-05-14T19:32:49.271Z,98420.22
2023-05-14T19:35:16.578Z,98419.56
2023-05-14T19:37:44.175Z,98418.72
2023-05-14T19:40:12.138Z,98426.31
2023-05-14T19:42:39.610Z,98421.88
2023-05-14T19:45:07.683Z,98425.38
2023-05-14T19:47:35.380Z,98423.09
2023-05-14T19:50:02.857Z,98420.88
2023-05-14T19:52:31.888Z,98422.88
2023-05-14T19:54:59.148Z,98422.16
2023-05-14T19:57:26.790Z,98421.16
2023-05-14T19:59:54.070Z,98421.88
2023-05-14T20:02:22.268Z,98423.09
2023-05-14T20:04:49.831Z,98422.69
2023-05-14T20:07:17.242Z,98420.53
2023-05-14T20:09:45.894Z,98418.09
2023-05-14T20:12:14.368Z,98415.56
2023-05-14T20:14:41.882Z,98416.13
2023-05-14T20:17:09.586Z,98424.16
2023-05-14T20:19:36.823Z,98417.75
2023-05-14T20:22:04.483Z,98425.13
2023-05-14T20:24:32.365Z,98426.28
2023-05-14T20:27:00.308Z,98422.56
2023-05-14T20:29:27.981Z,98417.81
2023-05-14T20:31:55.518Z,98420.66
2023-05-14T20:34:22.840Z,98415.28
2023-05-14T20:36:53.930Z,98410.09
2023-05-14T20:39:21.376Z,98414.91
2023-05-14T20:41:48.764Z,98410.13
2023-05-14T20:44:16.804Z,98407.41
2023-05-14T20:46:45.053Z,98413.63
2023-05-14T20:49:12.862Z,98413.75
2023-05-14T20:51:42.356Z,98422.59
2023-05-14T20:57:02.896Z,98417.59
2023-05-14T20:59:38.042Z,98415.22
2023-05-14T21:02:06.035Z,98413.47
2023-05-14T21:04:34.550Z,98408.72
2023-05-14T21:07:02.757Z,98423.75
2023-05-14T21:09:29.984Z,98419.13
2023-05-14T21:12:08.008Z,98417.78
2023-05-14T21:14:35.569Z,98421.59
2023-05-14T21:17:03.473Z,98419.44
2023-05-14T21:19:30.725Z,98420.84
2023-05-14T21:21:59.725Z,98420.41
2023-05-14T21:24:27.505Z,98420.84
2023-05-14T21:26:54.857Z,98415.63
2023-05-14T21:29:22.674Z,98423.31
2023-05-14T21:31:50.248Z,98416.69
2023-05-14T21:34:17.459Z,98421.94
2023-05-14T21:36:48.005Z,98428.09
2023-05-14T21:39:15.708Z,98421.84
2023-05-14T21:41:42.982Z,98425.50
2023-05-14T21:44:10.172Z,98423.38
2023-05-14T21:46:37.533Z,98421.66
2023-05-14T21:49:05.299Z,98431.59
2023-05-14T21:51:33.030Z,98425.34
2023-05-14T21:54:00.208Z,98427.84
2023-05-14T21:56:27.413Z,98424.72
2023-05-14T21:58:56.001Z,98428.19
2023-05-14T22:01:23.504Z,98425.81
2023-05-14T22:03:50.699Z,98424.53
2023-05-14T22:06:18.015Z,98422.75
2023-05-14T22:08:45.276Z,98421.91
2023-05-14T22:11:12.504Z,98417.13
2023-05-14T22:13:41.102Z,98419.41
2023-05-14T22:16:13.790Z,98411.91
2023-05-14T22:18:41.659Z,98417.78
2023-05-14T22:21:11.404Z,98406.19
2023-05-14T22:23:39.316Z,98408.56
2023-05-14T22:26:06.685Z,98412.28
2023-05-14T22:28:33.811Z,98404.38
2023-05-14T22:31:00.989Z,98415.41
2023-05-14T22:33:28.276Z,98397.19
2023-05-14T22:35:55.478Z,98408.28
2023-05-14T22:38:22.631Z,98404.56
2023-05-14T22:40:49.763Z,98404.03
2023-05-14T22:43:17.071Z,98400.66
2023-05-14T22:45:44.520Z,98396.97
2023-05-14T22:48:11.750Z,98396.34
2023-05-14T22:51:57.067Z,98392.44
2023-05-14T22:55:39.532Z,98388.50
2023-05-14T22:58:07.497Z,98387.84
2023-05-14T23:01:50.087Z,98392.63
2023-05-14T23:04:17.451Z,98389.66
2023-05-14T23:06:45.040Z,98384.63
2023-05-14T23:09:12.451Z,98383.44
2023-05-14T23:11:39.794Z,98383.13
2023-05-14T23:14:07.001Z,98383.66
2023-05-14T23:16:34.107Z,98374.97
2023-05-14T23:20:16.782Z,98373.44
2023-05-14T23:22:44.722Z,98372.53
2023-05-14T23:26:27.628Z,98377.66
2023-05-14T23:29:20.479Z,98381.31
2023-05-14T23:31:50.283Z,98379.03
2023-05-14T23:35:33.165Z,98377.91
2023-05-14T23:39:16.495Z,98370.19
2023-05-14T23:41:44.425Z,98376.22
2023-05-14T23:44:11.777Z,98368.84
2023-05-14T23:47:56.785Z,98374.59
2023-05-14T23:50:25.017Z,98373.97
2023-05-14T23:52:54.234Z,98366.66
2023-05-14T23:55:22.563Z,98360.38
2023-05-14T23:57:50.095Z,98363.16
